createdAt,value
2023-02-17T00:00:27.895Z,997.75
2023-02-17T00:01:27.909Z,997.84
2023-02-17T00:02:27.928Z,997.89
2023-02-17T00:03:27.931Z,997.82
2023-02-17T00:04:27.871Z,997.80
2023-02-17T00:05:27.874Z,997.82
2023-02-17T00:06:27.868Z,997.74
2023-02-17T00:07:27.877Z,997.78
2023-02-17T00:08:27.856Z,997.78
2023-02-17T00:09:27.840Z,997.81
2023-02-17T00:10:27.853Z,997.84
2023-02-17T00:11:27.828Z,997.81
2023-02-17T00:12:27.841Z,997.90
2023-02-17T00:13:27.806Z,997.87
2023-02-17T00:14:27.805Z,997.89
2023-02-17T00:15:27.805Z,997.79
2023-02-17T00:16:27.810Z,997.85
2023-02-17T00:17:27.829Z,997.89
2023-02-17T00:18:27.794Z,997.98
2023-02-17T00:19:27.772Z,997.92
2023-02-17T00:20:27.757Z,997.98
2023-02-17T00:21:27.770Z,997.99
2023-02-17T00:22:27.780Z,997.95
2023-02-17T00:23:27.750Z,997.97
2023-02-17T00:24:27.746Z,998.02
2023-02-17T00:25:27.727Z,997.99
2023-02-17T00:26:27.724Z,998.00
2023-02-17T00:27:27.731Z,998.01
2023-02-17T00:28:27.711Z,998.04
2023-02-17T00:29:27.710Z,998.02
2023-02-17T00:30:27.738Z,998.02
2023-02-17T00:31:27.841Z,998.08
2023-02-17T00:32:27.884Z,998.04
2023-02-17T00:33:27.958Z,998.08
2023-02-17T00:34:27.677Z,998.04
2023-02-17T00:35:27.665Z,998.00
2023-02-17T00:36:27.693Z,998.00
2023-02-17T00:37:27.669Z,998.04
2023-02-17T00:38:27.640Z,998.04
2023-02-17T00:39:27.634Z,998.02
2023-02-17T00:40:27.629Z,998.12
2023-02-17T00:41:27.626Z,998.07
2023-02-17T00:42:27.738Z,998.14
2023-02-17T00:43:27.611Z,998.17
2023-02-17T00:44:27.608Z,998.17
2023-02-17T00:45:27.598Z,998.16
2023-02-17T00:46:27.621Z,998.11
2023-02-17T00:47:27.602Z,998.13
2023-02-17T00:48:27.625Z,998.07
2023-02-17T00:49:27.567Z,998.05
2023-02-17T00:50:27.563Z,998.12
2023-02-17T00:51:27.586Z,998.03
2023-02-17T00:52:27.567Z,998.05
2023-02-17T00:53:27.541Z,998.00
2023-02-17T00:54:27.533Z,997.92
2023-02-17T00:55:27.531Z,997.94
2023-02-17T00:56:27.568Z,997.96
2023-02-17T00:57:27.526Z,997.91
2023-02-17T00:58:27.506Z,997.90
2023-02-17T00:59:27.504Z,997.95
2023-02-17T01:00:27.489Z,997.97
2023-02-17T01:01:27.601Z,997.95
2023-02-17T01:02:27.505Z,997.94
2023-02-17T01:03:27.471Z,997.94
2023-02-17T01:04:27.494Z,997.97
2023-02-17T01:05:27.459Z,997.97
2023-02-17T01:06:27.451Z,997.95
2023-02-17T01:07:27.472Z,997.96
2023-02-17T01:08:27.446Z,997.95
2023-02-17T01:09:27.431Z,997.98
2023-02-17T01:10:27.440Z,998.00
2023-02-17T01:11:27.430Z,997.97
2023-02-17T01:12:27.425Z,997.93
2023-02-17T01:13:27.410Z,997.94
2023-02-17T01:14:27.420Z,997.88
2023-02-17T01:15:27.389Z,997.91
2023-02-17T01:16:27.485Z,997.96
2023-02-17T01:17:27.403Z,997.87
2023-02-17T01:18:27.369Z,997.90
2023-02-17T01:19:27.365Z,997.85
2023-02-17T01:20:27.356Z,997.82
2023-02-17T01:21:27.356Z,997.79
2023-02-17T01:22:27.357Z,997.78
2023-02-17T01:23:27.371Z,997.81
2023-02-17T01:24:27.326Z,997.75
2023-02-17T01:25:27.326Z,997.69
2023-02-17T01:26:27.309Z,997.66
2023-02-17T01:27:27.307Z,997.68
2023-02-17T01:28:27.351Z,997.61
2023-02-17T01:29:27.305Z,997.63
2023-02-17T01:30:27.317Z,997.72
2023-02-17T01:31:27.445Z,997.65
2023-02-17T01:32:27.274Z,997.60
2023-02-17T01:33:27.282Z,997.63
2023-02-17T01:34:27.276Z,997.58
2023-02-17T01:35:27.247Z,997.66
2023-02-17T01:36:27.244Z,997.54
2023-02-17T01:37:27.228Z,997.49
2023-02-17T01:38:27.245Z,997.50
2023-02-17T01:39:27.223Z,997.50
2023-02-17T01:40:27.346Z,997.54
2023-02-17T01:41:27.206Z,997.51
2023-02-17T01:42:27.201Z,997.48
2023-02-17T01:43:27.195Z,997.55
2023-02-17T01:44:27.178Z,997.48
2023-02-17T01:45:27.404Z,997.47
2023-02-17T01:46:27.195Z,997.47
2023-02-17T01:47:28.177Z,997.47
2023-02-17T01:48:27.153Z,997.47
2023-02-17T01:49:27.153Z,997.40
2023-02-17T01:50:27.171Z,997.36
2023-02-17T01:51:27.134Z,997.33
2023-02-17T01:52:27.129Z,997.36
2023-02-17T01:53:27.135Z,997.26
2023-02-17T01:54:27.108Z,997.28
2023-02-17T01:55:27.108Z,997.21
2023-02-17T01:56:27.094Z,997.19
2023-02-17T01:57:27.080Z,997.16
2023-02-17T01:58:27.093Z,997.09
2023-02-17T01:59:27.072Z,997.13
2023-02-17T02:00:27.088Z,997.11
2023-02-17T02:01:27.051Z,997.17
2023-02-17T02:02:27.126Z,997.09
2023-02-17T02:03:27.042Z,997.09
2023-02-17T02:04:27.034Z,997.03
2023-02-17T02:05:27.043Z,997.09
2023-02-17T02:06:27.018Z,997.09
2023-02-17T02:07:27.022Z,997.02
2023-02-17T02:08:27.027Z,996.92
2023-02-17T02:09:27.000Z,996.98
2023-02-17T02:10:26.992Z,996.89
2023-02-17T02:11:26.998Z,996.90
2023-02-17T02:12:26.990Z,996.90
2023-02-17T02:13:26.997Z,996.86
2023-02-17T02:14:27.958Z,996.91
2023-02-17T02:15:26.963Z,996.78
2023-02-17T02:16:27.035Z,996.82
2023-02-17T02:17:26.945Z,996.82
2023-02-17T02:18:26.971Z,996.80
2023-02-17T02:19:26.930Z,996.89
2023-02-17T02:20:26.940Z,996.91
2023-02-17T02:21:26.932Z,996.78
2023-02-17T02:22:26.910Z,996.84
2023-02-17T02:23:26.918Z,996.88
2023-02-17T02:24:26.897Z,996.84
2023-02-17T02:25:26.909Z,996.81
2023-02-17T02:26:26.892Z,996.80
2023-02-17T02:27:26.886Z,996.82
2023-02-17T02:28:26.883Z,996.86
2023-02-17T02:29:26.864Z,996.84
2023-02-17T02:30:26.885Z,996.79
2023-02-17T02:31:26.914Z,996.80
2023-02-17T02:32:26.845Z,996.79
2023-02-17T02:33:26.867Z,996.78
2023-02-17T02:34:26.831Z,996.80
2023-02-17T02:35:26.820Z,996.70
2023-02-17T02:36:26.820Z,996.69
2023-02-17T02:37:26.813Z,996.69
2023-02-17T02:38:26.827Z,996.74
2023-02-17T02:39:26.822Z,996.61
2023-02-17T02:40:27.790Z,996.70
2023-02-17T02:41:26.794Z,996.65
2023-02-17T02:42:26.779Z,996.68
2023-02-17T02:43:26.785Z,996.64
2023-02-17T02:44:26.765Z,996.63
2023-02-17T02:45:27.392Z,996.63
2023-02-17T02:46:26.734Z,996.60
2023-02-17T02:47:27.748Z,996.62
2023-02-17T02:48:26.755Z,996.61
2023-02-17T02:49:26.735Z,996.57
2023-02-17T02:50:26.722Z,996.53
2023-02-17T02:51:26.709Z,996.51
2023-02-17T02:52:26.710Z,996.60
2023-02-17T02:53:26.705Z,996.61
2023-02-17T02:54:26.689Z,996.60
2023-02-17T02:55:27.682Z,996.56
2023-02-17T02:56:26.686Z,996.57
2023-02-17T02:57:26.671Z,996.61
2023-02-17T02:58:26.676Z,996.55
2023-02-17T02:59:26.652Z,996.57
2023-02-17T03:00:26.646Z,996.54
2023-02-17T03:01:26.697Z,996.50
2023-02-17T03:02:26.633Z,996.60
2023-02-17T03:03:26.657Z,996.58
2023-02-17T03:04:26.631Z,996.57
2023-02-17T03:05:26.614Z,996.53
2023-02-17T03:06:26.604Z,996.57
2023-02-17T03:07:26.598Z,996.55
2023-02-17T03:08:26.611Z,996.52
2023-02-17T03:09:26.607Z,996.50
2023-02-17T03:10:26.570Z,996.54
2023-02-17T03:11:26.567Z,996.50
2023-02-17T03:12:26.569Z,996.54
2023-02-17T03:13:26.578Z,996.50
2023-02-17T03:14:26.561Z,996.50
2023-02-17T03:15:26.542Z,996.48
2023-02-17T03:16:26.570Z,996.40
2023-02-17T03:17:26.543Z,996.46
2023-02-17T03:18:26.552Z,996.43
2023-02-17T03:19:26.515Z,996.48
2023-02-17T03:20:26.510Z,996.38
2023-02-17T03:21:26.570Z,996.40
2023-02-17T03:22:26.501Z,996.44
2023-02-17T03:23:26.529Z,996.48
2023-02-17T03:24:26.487Z,996.36
2023-02-17T03:25:26.486Z,996.45
2023-02-17T03:26:26.499Z,996.41
2023-02-17T03:27:26.466Z,996.48
2023-02-17T03:28:26.622Z,996.52
2023-02-17T03:29:26.477Z,996.47
2023-02-17T03:30:26.513Z,996.40
2023-02-17T03:31:27.272Z,996.47
2023-02-17T03:32:26.475Z,996.46
2023-02-17T03:33:26.471Z,996.38
2023-02-17T03:34:26.411Z,996.47
2023-02-17T03:35:27.341Z,996.47
2023-02-17T03:36:26.490Z,996.50
2023-02-17T03:37:26.403Z,996.47
2023-02-17T03:38:26.402Z,996.43
2023-02-17T03:39:27.333Z,996.52
2023-02-17T03:40:26.426Z,996.45
2023-02-17T03:41:26.443Z,996.41
2023-02-17T03:42:26.356Z,996.39
2023-02-17T03:43:27.350Z,996.36
2023-02-17T03:44:27.354Z,996.34
2023-02-17T03:45:27.351Z,996.38
2023-02-17T03:46:26.344Z,996.31
2023-02-17T03:47:26.345Z,996.34
2023-02-17T03:48:26.478Z,996.28
2023-02-17T03:49:27.404Z,996.32
2023-02-17T03:50:26.358Z,996.25
2023-02-17T03:51:26.309Z,996.27
2023-02-17T03:52:26.313Z,996.26
2023-02-17T03:53:26.380Z,996.21
2023-02-17T03:54:26.314Z,996.22
2023-02-17T03:55:26.276Z,996.24
2023-02-17T03:56:26.270Z,996.36
2023-02-17T03:57:26.323Z,996.19
2023-02-17T03:58:26.322Z,996.16
2023-02-17T03:59:26.299Z,996.18
2023-02-17T04:00:26.258Z,996.20
2023-02-17T04:01:26.893Z,996.17
2023-02-17T04:02:26.285Z,996.17
2023-02-17T04:03:26.279Z,996.14
2023-02-17T04:04:26.323Z,996.11
2023-02-17T04:05:26.199Z,996.07
2023-02-17T04:06:26.843Z,996.12
2023-02-17T04:07:26.215Z,996.12
2023-02-17T04:08:26.208Z,996.09
2023-02-17T04:09:26.835Z,996.12
2023-02-17T04:10:26.820Z,996.12
2023-02-17T04:11:26.213Z,996.05
2023-02-17T04:12:26.145Z,996.06
2023-02-17T04:13:26.190Z,996.11
2023-02-17T04:14:26.125Z,996.01
2023-02-17T04:15:26.186Z,995.98
2023-02-17T04:16:26.830Z,995.96
2023-02-17T04:17:26.268Z,996.00
2023-02-17T04:18:26.115Z,995.97
2023-02-17T04:19:26.274Z,996.01
2023-02-17T04:20:26.093Z,996.00
2023-02-17T04:21:26.085Z,995.95
2023-02-17T04:22:26.078Z,995.95
2023-02-17T04:23:26.084Z,996.02
2023-02-17T04:24:26.088Z,996.02
2023-02-17T04:25:26.059Z,996.07
2023-02-17T04:26:26.046Z,996.07
2023-02-17T04:27:26.030Z,996.11
2023-02-17T04:28:26.099Z,996.12
2023-02-17T04:29:26.088Z,996.10
2023-02-17T04:30:26.271Z,996.10
2023-02-17T04:31:26.302Z,996.04
2023-02-17T04:32:26.007Z,996.05
2023-02-17T04:33:25.995Z,996.09
2023-02-17T04:34:26.010Z,996.04
2023-02-17T04:35:25.976Z,996.09
2023-02-17T04:36:25.967Z,996.12
2023-02-17T04:37:25.961Z,996.17
2023-02-17T04:38:25.954Z,996.21
2023-02-17T04:39:25.978Z,996.18
2023-02-17T04:40:25.938Z,996.16
2023-02-17T04:41:25.928Z,996.15
2023-02-17T04:42:25.924Z,996.10
2023-02-17T04:43:25.938Z,996.12
2023-02-17T04:44:25.940Z,996.15
2023-02-17T04:45:25.920Z,996.09
2023-02-17T04:46:25.899Z,996.06
2023-02-17T04:47:25.887Z,996.04
2023-02-17T04:48:25.876Z,996.04
2023-02-17T04:49:25.897Z,996.05
2023-02-17T04:50:25.879Z,995.96
2023-02-17T04:51:25.858Z,995.99
2023-02-17T04:52:25.855Z,995.92
2023-02-17T04:53:25.840Z,995.96
2023-02-17T04:54:25.855Z,995.87
2023-02-17T04:55:25.837Z,995.84
2023-02-17T04:56:25.814Z,995.87
2023-02-17T04:57:25.817Z,995.93
2023-02-17T04:58:25.812Z,995.87
2023-02-17T04:59:25.819Z,995.97
2023-02-17T05:00:25.813Z,996.04
2023-02-17T05:01:25.800Z,996.01
2023-02-17T05:02:25.841Z,995.95
2023-02-17T05:03:25.780Z,995.94
2023-02-17T05:04:25.841Z,995.97
2023-02-17T05:05:25.764Z,996.01
2023-02-17T05:06:25.752Z,996.01
2023-02-17T05:07:25.751Z,995.98
2023-02-17T05:08:25.747Z,995.94
2023-02-17T05:09:25.756Z,995.96
2023-02-17T05:10:25.727Z,995.99
2023-02-17T05:11:25.722Z,995.92
2023-02-17T05:12:25.725Z,995.91
2023-02-17T05:13:25.712Z,995.85
2023-02-17T05:14:25.733Z,995.91
2023-02-17T05:15:25.706Z,995.89
2023-02-17T05:16:25.745Z,995.86
2023-02-17T05:17:25.698Z,995.92
2023-02-17T05:18:25.673Z,995.89
2023-02-17T05:19:25.680Z,995.90
2023-02-17T05:20:25.659Z,995.88
2023-02-17T05:21:25.665Z,995.89
2023-02-17T05:22:25.662Z,995.87
2023-02-17T05:23:25.638Z,995.74
2023-02-17T05:24:25.657Z,995.79
2023-02-17T05:25:25.625Z,995.82
2023-02-17T05:26:25.628Z,995.88
2023-02-17T05:27:25.623Z,995.86
2023-02-17T05:28:25.608Z,995.85
2023-02-17T05:29:25.617Z,995.85
2023-02-17T05:30:25.640Z,995.83
2023-02-17T05:31:25.734Z,995.88
2023-02-17T05:32:25.604Z,995.92
2023-02-17T05:33:25.569Z,995.85
2023-02-17T05:34:25.628Z,995.90
2023-02-17T05:35:25.551Z,995.82
2023-02-17T05:36:25.578Z,995.86
2023-02-17T05:37:25.543Z,995.83
2023-02-17T05:38:25.545Z,995.78
2023-02-17T05:39:25.567Z,995.79
2023-02-17T05:40:25.515Z,995.77
2023-02-17T05:41:25.516Z,995.77
2023-02-17T05:42:25.510Z,995.73
2023-02-17T05:43:25.500Z,995.77
2023-02-17T05:44:25.510Z,995.75
2023-02-17T05:45:25.509Z,995.76
2023-02-17T05:46:25.494Z,995.85
2023-02-17T05:47:27.566Z,995.76
2023-02-17T05:48:26.457Z,995.87
2023-02-17T05:49:25.480Z,995.87
2023-02-17T05:50:25.452Z,995.83
2023-02-17T05:51:25.439Z,995.84
2023-02-17T05:52:25.443Z,995.78
2023-02-17T05:53:25.446Z,995.76
2023-02-17T05:54:25.447Z,995.83
2023-02-17T05:55:25.422Z,995.85
2023-02-17T05:56:25.427Z,995.82
2023-02-17T05:57:25.402Z,995.86
2023-02-17T05:58:25.389Z,995.88
2023-02-17T05:59:25.415Z,995.85
2023-02-17T06:00:25.383Z,995.83
2023-02-17T06:01:25.375Z,995.88
2023-02-17T06:02:25.363Z,995.90
2023-02-17T06:03:25.359Z,995.94
2023-02-17T06:04:25.410Z,995.91
2023-02-17T06:05:25.346Z,995.86
2023-02-17T06:06:25.333Z,995.78
2023-02-17T06:07:25.322Z,995.74
2023-02-17T06:08:25.334Z,995.73
2023-02-17T06:09:25.361Z,995.74
2023-02-17T06:10:25.316Z,995.69
2023-02-17T06:11:25.307Z,995.69
2023-02-17T06:12:25.316Z,995.66
2023-02-17T06:13:25.289Z,995.67
2023-02-17T06:14:25.306Z,995.64
2023-02-17T06:15:25.282Z,995.68
2023-02-17T06:16:25.323Z,995.70
2023-02-17T06:17:25.267Z,995.70
2023-02-17T06:18:25.264Z,995.67
2023-02-17T06:19:25.289Z,995.67
2023-02-17T06:20:25.249Z,995.65
2023-02-17T06:21:25.239Z,995.69
2023-02-17T06:22:25.229Z,995.71
2023-02-17T06:23:26.221Z,995.65
2023-02-17T06:24:25.268Z,995.74
2023-02-17T06:25:25.204Z,995.69
2023-02-17T06:26:25.208Z,995.72
2023-02-17T06:27:26.201Z,995.75
2023-02-17T06:28:25.191Z,995.74
2023-02-17T06:29:25.208Z,995.68
2023-02-17T06:30:25.208Z,995.63
2023-02-17T06:31:25.267Z,995.62
2023-02-17T06:32:25.168Z,995.57
2023-02-17T06:33:25.144Z,995.53
2023-02-17T06:34:25.155Z,995.50
2023-02-17T06:35:25.126Z,995.48
2023-02-17T06:36:25.117Z,995.55
2023-02-17T06:37:25.129Z,995.49
2023-02-17T06:38:25.195Z,995.53
2023-02-17T06:39:25.124Z,995.60
2023-02-17T06:40:26.074Z,995.64
2023-02-17T06:41:25.108Z,995.71
2023-02-17T06:42:25.078Z,995.79
2023-02-17T06:43:25.085Z,995.76
2023-02-17T06:44:25.118Z,995.86
2023-02-17T06:45:25.136Z,995.84
2023-02-17T06:46:25.070Z,995.90
2023-02-17T06:47:25.061Z,995.87
2023-02-17T06:48:25.037Z,995.85
2023-02-17T06:49:25.055Z,995.83
2023-02-17T06:50:25.031Z,995.87
2023-02-17T06:51:25.009Z,995.85
2023-02-17T06:52:25.005Z,995.87
2023-02-17T06:53:25.025Z,995.87
2023-02-17T06:54:25.038Z,995.73
2023-02-17T06:55:24.981Z,995.78
2023-02-17T06:56:25.013Z,995.69
2023-02-17T06:57:24.972Z,995.69
2023-02-17T06:58:24.961Z,995.70
2023-02-17T06:59:24.997Z,995.64
2023-02-17T07:00:25.013Z,995.67
2023-02-17T07:01:24.925Z,995.70
2023-02-17T07:02:25.044Z,995.75
2023-02-17T07:03:24.955Z,995.74
2023-02-17T07:04:24.928Z,995.77
2023-02-17T07:05:24.925Z,995.83
2023-02-17T07:06:24.920Z,995.71
2023-02-17T07:07:24.896Z,995.80
2023-02-17T07:08:24.915Z,995.80
2023-02-17T07:09:24.912Z,995.75
2023-02-17T07:10:24.886Z,995.80
2023-02-17T07:11:24.872Z,995.76
2023-02-17T07:12:24.878Z,995.73
2023-02-17T07:13:24.875Z,995.80
2023-02-17T07:14:25.095Z,995.73
2023-02-17T07:15:25.850Z,995.73
2023-02-17T07:16:24.940Z,995.69
2023-02-17T07:17:24.833Z,995.67
2023-02-17T07:18:24.842Z,995.71
2023-02-17T07:19:24.845Z,995.61
2023-02-17T07:20:24.823Z,995.55
2023-02-17T07:21:24.817Z,995.67
2023-02-17T07:22:24.791Z,995.64
2023-02-17T07:23:24.789Z,995.68
2023-02-17T07:24:24.813Z,995.55
2023-02-17T07:25:24.786Z,995.57
2023-02-17T07:26:24.774Z,995.46
2023-02-17T07:27:24.761Z,995.48
2023-02-17T07:28:24.783Z,995.55
2023-02-17T07:29:24.760Z,995.53
2023-02-17T07:30:24.794Z,995.56
2023-02-17T07:31:24.869Z,995.53
2023-02-17T07:32:24.725Z,995.50
2023-02-17T07:33:24.710Z,995.59
2023-02-17T07:34:24.743Z,995.57
2023-02-17T07:35:24.714Z,995.61
2023-02-17T07:36:24.699Z,995.60
2023-02-17T07:37:24.705Z,995.59
2023-02-17T07:38:24.697Z,995.50
2023-02-17T07:39:24.742Z,995.54
2023-02-17T07:40:24.687Z,995.50
2023-02-17T07:41:24.677Z,995.51
2023-02-17T07:42:24.674Z,995.46
2023-02-17T07:43:24.655Z,995.50
2023-02-17T07:44:24.635Z,995.47
2023-02-17T07:45:24.646Z,995.50
2023-02-17T07:46:24.627Z,995.59
2023-02-17T07:47:24.625Z,995.59
2023-02-17T07:48:24.612Z,995.60
2023-02-17T07:49:24.653Z,995.58
2023-02-17T07:50:24.611Z,995.55
2023-02-17T07:51:24.586Z,995.61
2023-02-17T07:52:24.596Z,995.58
2023-02-17T07:53:24.596Z,995.64
2023-02-17T07:54:24.579Z,995.46
2023-02-17T07:55:24.571Z,995.68
2023-02-17T07:56:24.553Z,995.68
2023-02-17T07:57:24.527Z,995.65
2023-02-17T07:58:24.531Z,995.69
2023-02-17T07:59:24.527Z,995.59
2023-02-17T08:00:24.560Z,995.63
2023-02-17T08:01:24.515Z,995.65
2023-02-17T08:02:24.511Z,995.60
2023-02-17T08:03:25.523Z,995.65
2023-02-17T08:04:24.538Z,995.61
2023-02-17T08:05:24.504Z,995.43
2023-02-17T08:06:24.477Z,995.53
2023-02-17T08:07:24.515Z,995.63
2023-02-17T08:08:24.448Z,995.53
2023-02-17T08:09:24.463Z,995.61
2023-02-17T08:10:24.470Z,995.59
2023-02-17T08:11:24.450Z,995.59
2023-02-17T08:12:24.432Z,995.59
2023-02-17T08:13:24.436Z,995.63
2023-02-17T08:14:24.443Z,995.69
2023-02-17T08:15:24.434Z,995.65
2023-02-17T08:16:24.476Z,995.62
2023-02-17T08:17:24.391Z,995.50
2023-02-17T08:18:24.403Z,995.49
2023-02-17T08:19:24.373Z,995.40
2023-02-17T08:20:24.425Z,995.51
2023-02-17T08:21:24.379Z,995.48
2023-02-17T08:22:24.360Z,995.46
2023-02-17T08:23:24.356Z,995.54
2023-02-17T08:24:24.351Z,995.54
2023-02-17T08:25:24.393Z,995.43
2023-02-17T08:26:24.330Z,995.54
2023-02-17T08:27:24.346Z,995.52
2023-02-17T08:28:24.311Z,995.54
2023-02-17T08:29:24.341Z,995.42
2023-02-17T08:30:24.386Z,995.39
2023-02-17T08:31:24.414Z,995.41
2023-02-17T08:32:24.291Z,995.42
2023-02-17T08:33:24.279Z,995.41
2023-02-17T08:34:24.316Z,995.43
2023-02-17T08:35:24.298Z,995.31
2023-02-17T08:36:24.255Z,995.41
2023-02-17T08:37:24.258Z,995.41
2023-02-17T08:38:24.247Z,995.31
2023-02-17T08:39:24.290Z,995.39
2023-02-17T08:40:24.272Z,995.32
2023-02-17T08:41:24.258Z,995.35
2023-02-17T08:42:24.221Z,995.36
2023-02-17T08:43:24.216Z,995.27
2023-02-17T08:44:24.218Z,995.31
2023-02-17T08:45:24.209Z,995.35
2023-02-17T08:46:24.335Z,995.25
2023-02-17T08:47:24.182Z,995.29
2023-02-17T08:48:24.173Z,995.24
2023-02-17T08:49:24.171Z,995.25
2023-02-17T08:50:25.252Z,995.29
2023-02-17T08:51:24.165Z,995.27
2023-02-17T08:52:24.145Z,995.20
2023-02-17T08:53:24.288Z,995.15
2023-02-17T08:54:24.129Z,995.11
2023-02-17T08:55:24.154Z,995.14
2023-02-17T08:56:24.125Z,995.09
2023-02-17T08:57:24.135Z,995.05
2023-02-17T08:58:24.182Z,995.02
2023-02-17T08:59:24.086Z,995.07
2023-02-17T09:00:24.120Z,995.08
2023-02-17T09:01:24.160Z,994.99
2023-02-17T09:02:25.079Z,995.08
2023-02-17T09:03:24.078Z,995.13
2023-02-17T09:04:24.203Z,995.11
2023-02-17T09:05:24.071Z,995.20
2023-02-17T09:06:24.037Z,995.17
2023-02-17T09:07:24.031Z,995.11
2023-02-17T09:08:24.056Z,994.98
2023-02-17T09:09:24.024Z,995.04
2023-02-17T09:10:24.045Z,994.93
2023-02-17T09:11:24.016Z,995.02
2023-02-17T09:12:25.000Z,995.04
2023-02-17T09:13:24.001Z,995.02
2023-02-17T09:14:23.996Z,995.01
2023-02-17T09:15:24.023Z,994.94
2023-02-17T09:16:24.026Z,994.99
2023-02-17T09:17:23.964Z,995.04
2023-02-17T09:18:23.983Z,994.88
2023-02-17T09:19:23.949Z,994.98
2023-02-17T09:20:25.333Z,994.93
2023-02-17T09:21:24.989Z,995.04
2023-02-17T09:22:32.114Z,994.87
2023-02-17T09:23:25.983Z,994.89
2023-02-17T09:24:23.916Z,994.94
2023-02-17T09:25:23.979Z,994.87
2023-02-17T09:26:23.924Z,994.87
2023-02-17T09:27:23.887Z,994.96
2023-02-17T09:28:23.892Z,994.86
2023-02-17T09:29:23.882Z,994.89
2023-02-17T09:30:23.987Z,994.90
2023-02-17T09:31:24.053Z,994.92
2023-02-17T09:32:23.978Z,994.86
2023-02-17T09:33:25.770Z,994.86
2023-02-17T09:34:23.852Z,994.90
2023-02-17T09:35:23.926Z,994.89
2023-02-17T09:36:23.892Z,994.87
2023-02-17T09:37:23.826Z,994.89
2023-02-17T09:38:23.840Z,994.88
2023-02-17T09:39:23.823Z,994.79
2023-02-17T09:40:23.933Z,994.85
2023-02-17T09:41:23.932Z,994.82
2023-02-17T09:42:23.810Z,994.82
2023-02-17T09:43:23.850Z,994.76
2023-02-17T09:44:23.847Z,994.81
2023-02-17T09:45:23.819Z,994.53
2023-02-17T09:46:23.788Z,994.58
2023-02-17T09:47:23.804Z,994.70
2023-02-17T09:48:23.765Z,994.73
2023-02-17T09:49:23.822Z,994.62
2023-02-17T09:50:23.835Z,994.76
2023-02-17T09:51:23.736Z,994.75
2023-02-17T09:52:23.786Z,994.59
2023-02-17T09:53:23.758Z,994.63
2023-02-17T09:54:23.733Z,994.69
2023-02-17T09:55:23.760Z,994.63
2023-02-17T09:56:23.757Z,994.77
2023-02-17T09:57:23.731Z,994.69
2023-02-17T09:58:23.773Z,994.67
2023-02-17T09:59:23.722Z,994.64
2023-02-17T10:00:23.702Z,994.78
2023-02-17T10:01:23.704Z,994.67
2023-02-17T10:02:23.728Z,994.68
2023-02-17T10:03:23.819Z,994.77
2023-02-17T10:04:23.775Z,994.73
2023-02-17T10:05:23.696Z,994.78
2023-02-17T10:06:23.685Z,994.73
2023-02-17T10:07:23.755Z,994.80
2023-02-17T10:08:23.648Z,994.82
2023-02-17T10:09:23.759Z,994.92
2023-02-17T10:10:23.682Z,994.80
2023-02-17T10:11:23.680Z,994.93
2023-02-17T10:12:23.584Z,994.88
2023-02-17T10:13:23.573Z,994.93
2023-02-17T10:14:23.608Z,994.98
2023-02-17T10:15:23.572Z,994.97
2023-02-17T10:16:23.665Z,994.93
2023-02-17T10:17:23.550Z,994.82
2023-02-17T10:18:23.631Z,995.02
2023-02-17T10:19:23.541Z,995.01
2023-02-17T10:20:23.574Z,995.09
2023-02-17T10:21:23.545Z,995.02
2023-02-17T10:22:23.507Z,995.06
2023-02-17T10:23:23.585Z,995.10
2023-02-17T10:24:23.554Z,995.16
2023-02-17T10:25:23.535Z,995.11
2023-02-17T10:26:23.487Z,995.08
2023-02-17T10:27:23.477Z,995.11
2023-02-17T10:28:23.488Z,995.20
2023-02-17T10:29:23.459Z,995.20
2023-02-17T10:30:23.577Z,995.13
2023-02-17T10:31:23.631Z,995.17
2023-02-17T10:32:23.618Z,995.23
2023-02-17T10:33:23.470Z,995.12
2023-02-17T10:34:23.415Z,995.11
2023-02-17T10:35:23.407Z,994.94
2023-02-17T10:36:23.442Z,995.05
2023-02-17T10:37:23.441Z,994.97
2023-02-17T10:38:23.476Z,994.94
2023-02-17T10:39:23.395Z,994.92
2023-02-17T10:40:23.392Z,994.87
2023-02-17T10:41:23.390Z,994.93
2023-02-17T10:42:23.369Z,994.91
2023-02-17T10:43:23.360Z,994.88
2023-02-17T10:44:23.447Z,994.77
2023-02-17T10:45:23.344Z,994.77
2023-02-17T10:46:24.303Z,994.68
2023-02-17T10:47:23.342Z,994.70
2023-02-17T10:48:23.321Z,994.78
2023-02-17T10:49:23.331Z,994.81
2023-02-17T10:50:23.334Z,994.67
2023-02-17T10:51:23.317Z,994.71
2023-02-17T10:52:24.250Z,994.72
2023-02-17T10:53:23.308Z,994.70
2023-02-17T10:54:23.277Z,994.78
2023-02-17T10:55:23.754Z,994.72
2023-02-17T10:56:24.291Z,994.66
2023-02-17T10:57:25.041Z,994.45
2023-02-17T10:58:23.270Z,994.49
2023-02-17T10:59:23.246Z,994.43
2023-02-17T11:00:23.389Z,994.21
2023-02-17T11:01:23.279Z,994.29
2023-02-17T11:02:23.241Z,994.18
2023-02-17T11:03:23.244Z,994.17
2023-02-17T11:04:23.229Z,993.99
2023-02-17T11:05:23.194Z,994.02
2023-02-17T11:06:23.241Z,994.11
2023-02-17T11:07:23.191Z,994.11
2023-02-17T11:08:23.189Z,993.95
2023-02-17T11:09:23.207Z,993.99
2023-02-17T11:10:23.191Z,994.32
2023-02-17T11:11:23.176Z,994.11
2023-02-17T11:12:23.178Z,994.11
2023-02-17T11:13:23.146Z,994.22
2023-02-17T11:14:24.138Z,994.06
2023-02-17T11:15:23.159Z,994.19
2023-02-17T11:16:23.211Z,994.21
2023-02-17T11:17:23.147Z,994.20
2023-02-17T11:18:23.105Z,994.24
2023-02-17T11:19:23.106Z,994.35
2023-02-17T11:20:23.105Z,994.26
2023-02-17T11:21:23.137Z,994.43
2023-02-17T11:22:23.111Z,994.44
2023-02-17T11:23:23.111Z,994.41
2023-02-17T11:24:23.085Z,994.49
2023-02-17T11:25:23.062Z,994.55
2023-02-17T11:26:23.083Z,994.56
2023-02-17T11:27:23.053Z,994.59
2023-02-17T11:28:24.110Z,994.64
2023-02-17T11:29:24.776Z,994.66
2023-02-17T11:30:23.097Z,994.64
2023-02-17T11:31:23.149Z,994.73
2023-02-17T11:32:23.051Z,994.70
2023-02-17T11:33:23.113Z,994.72
2023-02-17T11:34:23.013Z,994.66
2023-02-17T11:35:23.003Z,994.62
2023-02-17T11:36:23.192Z,994.59
2023-02-17T11:37:22.979Z,994.56
2023-02-17T11:38:22.981Z,994.47
2023-02-17T11:39:22.984Z,994.40
2023-02-17T11:40:25.972Z,994.27
2023-02-17T11:41:24.146Z,994.31
2023-02-17T11:42:22.975Z,994.32
2023-02-17T11:43:22.945Z,994.35
2023-02-17T11:44:22.936Z,994.49
2023-02-17T11:45:22.947Z,994.51
2023-02-17T11:46:22.972Z,994.53
2023-02-17T11:47:22.915Z,994.37
2023-02-17T11:48:23.909Z,994.37
2023-02-17T11:49:22.968Z,994.21
2023-02-17T11:50:39.066Z,994.20
2023-02-17T11:51:24.913Z,994.20
2023-02-17T11:52:24.324Z,994.21
2023-02-17T11:53:22.872Z,994.22
2023-02-17T11:54:23.927Z,994.22
2023-02-17T11:55:22.855Z,994.24
2023-02-17T11:56:22.875Z,994.18
2023-02-17T11:57:22.831Z,994.10
2023-02-17T11:58:22.838Z,994.13
2023-02-17T11:59:22.831Z,994.12
2023-02-17T12:00:22.838Z,993.93
2023-02-17T12:01:22.886Z,994.11
2023-02-17T12:02:22.813Z,994.01
2023-02-17T12:03:22.866Z,994.02
2023-02-17T12:04:22.793Z,994.01
2023-02-17T12:05:22.783Z,994.04
2023-02-17T12:06:22.808Z,994.05
2023-02-17T12:07:22.778Z,994.02
2023-02-17T12:08:22.783Z,993.89
2023-02-17T12:09:22.747Z,994.04
2023-02-17T12:10:22.747Z,994.05
2023-02-17T12:11:22.748Z,993.99
2023-02-17T12:12:22.728Z,993.89
2023-02-17T12:13:22.721Z,993.92
2023-02-17T12:14:22.705Z,993.91
2023-02-17T12:15:22.723Z,993.91
2023-02-17T12:16:22.842Z,993.94
2023-02-17T12:17:22.687Z,993.90
2023-02-17T12:18:22.674Z,993.97
2023-02-17T12:19:22.674Z,993.84
2023-02-17T12:20:22.673Z,993.96
2023-02-17T12:21:22.689Z,994.08
2023-02-17T12:22:22.780Z,994.07
2023-02-17T12:23:22.640Z,994.06
2023-02-17T12:24:22.651Z,994.09
2023-02-17T12:25:22.636Z,994.02
2023-02-17T12:26:22.620Z,994.03
2023-02-17T12:27:22.612Z,994.06
2023-02-17T12:28:22.602Z,994.12